Salina, KS

1:29 AM CDT on September 29, 2016 (GMT -0500)
Stegall's Oasis | | Change Station

Elev 1247 ft 38.82 °N, 97.63 °W | Updated 35 seconds ago

Clear
Clear
49.0 °F
Feels Like 49 °F
N
0.0
Wind Variable Wind from SW

Today
High -- | Low -- °F
--% Chance of Precip.
Yesterday
High -- | Low -- °F
Precip. -- in
Pressure 30.32 in
Visibility 10.0 miles
Clouds Clear
Windchill 49 °F
Dew Point 44 °F
Humidity 85%
Rainfall 0.00 in
Snow Depth Not available.
7:25 AM 7:15 PM
Waning Crescent, 3% visible
METAR KSLN 290553Z AUTO 34003KT 10SM CLR 12/08 A3033 RMK AO2 SLP265 T01220078 10206 20122 402390122 53014
Pressure 30.32 in
Visibility 10.0 miles
Clouds Clear
Windchill 49 °F
Dew Point 44 °F
Humidity 85%
Rainfall 0.00 in
Snow Depth Not available.
7:25 AM 7:15 PM
Waning Crescent, 3% visible
METAR KSLN 290553Z AUTO 34003KT 10SM CLR 12/08 A3033 RMK AO2 SLP265 T01220078 10206 20122 402390122 53014

10-Day Weather Forecast

Almanac

Astronomy

Sep. 29, 2016 Rise Set
Actual Time
Civil Twilight
Nautical Twilight
Astronomical Twilight
Moon
Length of Visible Light
Length of Day
Tomorrow will be .
, % of the Moon is Illuminated

Today's Extremes

State Highs State Lows

Community

WunderPhotos

Upload Photos

1,942,446 photos uploaded!

WunderBlog® & News

Nearby

Air Quality

  Air Quality AQ Index Pollutant
Not available.

Snow Depth

Station Depth Elevation

Earthquake Activity

City Distance Mag. Time & Date
Minimum magnitude displayed is 2.5.

Coastal Water Temperatures

Place Temperature

Stations

Nearby Weather Stations

Station Location Temp. Windchill Dew Point Humidity Wind Precip. Elev Updated Type
                   

Watches & Warnings

There are currently no watches in effect.